sensor_id;sensor_type;location;lat;lon;timestamp;P1;durP1;ratioP1;P2;durP2;ratioP2
22320;SDS011;11328;53.928;18.522;2023-07-29T00:00:16;22.52;;;16.00;;
22320;SDS011;11328;53.928;18.522;2023-07-29T00:02:44;21.38;;;15.23;;
22320;SDS011;11328;53.928;18.522;2023-07-29T00:05:11;27.75;;;18.13;;
22320;SDS011;11328;53.928;18.522;2023-07-29T00:07:38;24.05;;;16.52;;
22320;SDS011;11328;53.928;18.522;2023-07-29T00:10:05;22.27;;;15.63;;
22320;SDS011;11328;53.928;18.522;2023-07-29T00:12:34;21.70;;;15.55;;
22320;SDS011;11328;53.928;18.522;2023-07-29T00:15:01;20.35;;;15.48;;
22320;SDS011;11328;53.928;18.522;2023-07-29T00:17:28;22.30;;;15.50;;
22320;SDS011;11328;53.928;18.522;2023-07-29T00:19:56;22.23;;;15.77;;
22320;SDS011;11328;53.928;18.522;2023-07-29T00:22:23;24.98;;;16.20;;
22320;SDS011;11328;53.928;18.522;2023-07-29T00:24:53;21.45;;;15.23;;
22320;SDS011;11328;53.928;18.522;2023-07-29T00:27:21;20.88;;;15.15;;
22320;SDS011;11328;53.928;18.522;2023-07-29T00:29:49;25.58;;;16.17;;
22320;SDS011;11328;53.928;18.522;2023-07-29T00:32:16;21.63;;;16.13;;
22320;SDS011;11328;53.928;18.522;2023-07-29T00:34:44;21.80;;;15.48;;
22320;SDS011;11328;53.928;18.522;2023-07-29T00:37:11;22.52;;;15.63;;
22320;SDS011;11328;53.928;18.522;2023-07-29T00:39:38;24.50;;;14.98;;
22320;SDS011;11328;53.928;18.522;2023-07-29T00:42:06;23.80;;;15.70;;
22320;SDS011;11328;53.928;18.522;2023-07-29T00:44:33;23.35;;;16.23;;
22320;SDS011;11328;53.928;18.522;2023-07-29T00:47:02;23.70;;;15.43;;
22320;SDS011;11328;53.928;18.522;2023-07-29T00:49:32;21.50;;;14.63;;
22320;SDS011;11328;53.928;18.522;2023-07-29T00:52:00;25.13;;;14.18;;
22320;SDS011;11328;53.928;18.522;2023-07-29T00:54:27;23.92;;;14.80;;
22320;SDS011;11328;53.928;18.522;2023-07-29T00:56:54;21.92;;;15.55;;
22320;SDS011;11328;53.928;18.522;2023-07-29T00:59:22;23.88;;;14.57;;
22320;SDS011;11328;53.928;18.522;2023-07-29T01:01:49;19.92;;;15.07;;
22320;SDS011;11328;53.928;18.522;2023-07-29T01:04:17;21.60;;;13.90;;
22320;SDS011;11328;53.928;18.522;2023-07-29T01:07:29;23.60;;;15.02;;
22320;SDS011;11328;53.928;18.522;2023-07-29T01:09:55;21.10;;;14.50;;
22320;SDS011;11328;53.928;18.522;2023-07-29T01:15:16;19.77;;;13.77;;
22320;SDS011;11328;53.928;18.522;2023-07-29T01:18:23;18.30;;;13.95;;
22320;SDS011;11328;53.928;18.522;2023-07-29T01:21:02;24.58;;;14.00;;
22320;SDS011;11328;53.928;18.522;2023-07-29T01:23:33;23.17;;;14.05;;
22320;SDS011;11328;53.928;18.522;2023-07-29T01:26:02;19.73;;;14.13;;
22320;SDS011;11328;53.928;18.522;2023-07-29T01:28:30;21.42;;;13.98;;
22320;SDS011;11328;53.928;18.522;2023-07-29T01:31:32;22.05;;;13.35;;
22320;SDS011;11328;53.928;18.522;2023-07-29T01:34:10;20.13;;;12.85;;
22320;SDS011;11328;53.928;18.522;2023-07-29T01:37:15;23.60;;;13.48;;
22320;SDS011;11328;53.928;18.522;2023-07-29T01:39:49;22.38;;;14.38;;
22320;SDS011;11328;53.928;18.522;2023-07-29T01:42:21;23.35;;;14.35;;
22320;SDS011;11328;53.928;18.522;2023-07-29T01:44:49;17.65;;;13.52;;
22320;SDS011;11328;53.928;18.522;2023-07-29T01:47:16;18.70;;;12.88;;
22320;SDS011;11328;53.928;18.522;2023-07-29T01:49:43;22.30;;;13.00;;
22320;SDS011;11328;53.928;18.522;2023-07-29T01:52:11;19.45;;;13.27;;
22320;SDS011;11328;53.928;18.522;2023-07-29T01:54:38;20.05;;;13.40;;
22320;SDS011;11328;53.928;18.522;2023-07-29T01:57:05;19.48;;;12.38;;
22320;SDS011;11328;53.928;18.522;2023-07-29T01:59:33;18.63;;;12.25;;
22320;SDS011;11328;53.928;18.522;2023-07-29T02:02:00;17.10;;;11.63;;
22320;SDS011;11328;53.928;18.522;2023-07-29T02:04:27;19.08;;;12.50;;
22320;SDS011;11328;53.928;18.522;2023-07-29T02:06:54;21.50;;;14.52;;
22320;SDS011;11328;53.928;18.522;2023-07-29T02:09:21;22.63;;;15.43;;
22320;SDS011;11328;53.928;18.522;2023-07-29T02:11:49;22.27;;;14.95;;
22320;SDS011;11328;53.928;18.522;2023-07-29T02:14:16;27.48;;;16.10;;
22320;SDS011;11328;53.928;18.522;2023-07-29T02:16:43;28.25;;;18.65;;
22320;SDS011;11328;53.928;18.522;2023-07-29T02:19:11;26.27;;;18.67;;
22320;SDS011;11328;53.928;18.522;2023-07-29T02:21:38;25.83;;;19.10;;
22320;SDS011;11328;53.928;18.522;2023-07-29T02:24:05;25.73;;;19.05;;
22320;SDS011;11328;53.928;18.522;2023-07-29T02:26:32;25.35;;;18.73;;
22320;SDS011;11328;53.928;18.522;2023-07-29T02:29:00;31.52;;;19.40;;
22320;SDS011;11328;53.928;18.522;2023-07-29T02:31:27;30.20;;;20.27;;
22320;SDS011;11328;53.928;18.522;2023-07-29T02:33:54;30.70;;;20.25;;
22320;SDS011;11328;53.928;18.522;2023-07-29T02:36:22;33.50;;;20.83;;
22320;SDS011;11328;53.928;18.522;2023-07-29T02:38:49;31.80;;;21.17;;
22320;SDS011;11328;53.928;18.522;2023-07-29T02:41:17;32.55;;;23.13;;
22320;SDS011;11328;53.928;18.522;2023-07-29T02:43:47;33.38;;;22.63;;
22320;SDS011;11328;53.928;18.522;2023-07-29T02:46:16;31.03;;;22.77;;
22320;SDS011;11328;53.928;18.522;2023-07-29T02:48:44;33.38;;;23.75;;
22320;SDS011;11328;53.928;18.522;2023-07-29T02:51:11;35.88;;;24.38;;
22320;SDS011;11328;53.928;18.522;2023-07-29T02:53:38;34.03;;;24.67;;
22320;SDS011;11328;53.928;18.522;2023-07-29T02:56:06;39.60;;;25.80;;
22320;SDS011;11328;53.928;18.522;2023-07-29T02:58:36;32.75;;;26.83;;
22320;SDS011;11328;53.928;18.522;2023-07-29T03:01:04;37.42;;;25.85;;
22320;SDS011;11328;53.928;18.522;2023-07-29T03:03:32;31.48;;;25.00;;
22320;SDS011;11328;53.928;18.522;2023-07-29T03:06:03;31.27;;;24.42;;
22320;SDS011;11328;53.928;18.522;2023-07-29T03:08:36;34.67;;;24.27;;
22320;SDS011;11328;53.928;18.522;2023-07-29T03:11:08;33.40;;;23.27;;
22320;SDS011;11328;53.928;18.522;2023-07-29T03:13:40;31.83;;;22.92;;
22320;SDS011;11328;53.928;18.522;2023-07-29T03:16:11;34.45;;;24.38;;
22320;SDS011;11328;53.928;18.522;2023-07-29T03:18:41;30.92;;;23.08;;
22320;SDS011;11328;53.928;18.522;2023-07-29T03:21:10;30.02;;;22.67;;
22320;SDS011;11328;53.928;18.522;2023-07-29T03:23:37;29.92;;;22.65;;
22320;SDS011;11328;53.928;18.522;2023-07-29T03:26:06;29.38;;;21.33;;
22320;SDS011;11328;53.928;18.522;2023-07-29T03:28:40;29.40;;;22.13;;
22320;SDS011;11328;53.928;18.522;2023-07-29T03:31:10;29.25;;;21.90;;
22320;SDS011;11328;53.928;18.522;2023-07-29T03:33:39;28.25;;;21.75;;
22320;SDS011;11328;53.928;18.522;2023-07-29T03:36:06;36.00;;;23.70;;
22320;SDS011;11328;53.928;18.522;2023-07-29T03:38:34;35.03;;;24.10;;
22320;SDS011;11328;53.928;18.522;2023-07-29T03:41:02;31.85;;;24.88;;
22320;SDS011;11328;53.928;18.522;2023-07-29T03:43:30;35.20;;;23.98;;
22320;SDS011;11328;53.928;18.522;2023-07-29T03:45:57;35.33;;;23.50;;
22320;SDS011;11328;53.928;18.522;2023-07-29T03:48:25;29.70;;;22.13;;
22320;SDS011;11328;53.928;18.522;2023-07-29T03:50:52;29.13;;;22.45;;
22320;SDS011;11328;53.928;18.522;2023-07-29T03:53:20;31.50;;;22.20;;
22320;SDS011;11328;53.928;18.522;2023-07-29T03:55:48;31.02;;;22.10;;
22320;SDS011;11328;53.928;18.522;2023-07-29T03:58:16;33.35;;;23.55;;
22320;SDS011;11328;53.928;18.522;2023-07-29T04:00:43;29.55;;;21.63;;
22320;SDS011;11328;53.928;18.522;2023-07-29T04:03:10;39.28;;;23.38;;
22320;SDS011;11328;53.928;18.522;2023-07-29T04:05:37;33.17;;;23.17;;
22320;SDS011;11328;53.928;18.522;2023-07-29T04:08:05;31.10;;;22.20;;
22320;SDS011;11328;53.928;18.522;2023-07-29T04:10:32;33.70;;;23.10;;
22320;SDS011;11328;53.928;18.522;2023-07-29T04:13:01;29.23;;;20.73;;
22320;SDS011;11328;53.928;18.522;2023-07-29T04:15:28;32.58;;;21.40;;
22320;SDS011;11328;53.928;18.522;2023-07-29T04:17:56;27.58;;;21.25;;
22320;SDS011;11328;53.928;18.522;2023-07-29T04:20:24;27.30;;;20.40;;
22320;SDS011;11328;53.928;18.522;2023-07-29T04:22:51;28.13;;;20.35;;
22320;SDS011;11328;53.928;18.522;2023-07-29T04:25:18;26.60;;;21.33;;
22320;SDS011;11328;53.928;18.522;2023-07-29T04:27:45;27.35;;;19.92;;
22320;SDS011;11328;53.928;18.522;2023-07-29T04:30:12;32.13;;;20.60;;
22320;SDS011;11328;53.928;18.522;2023-07-29T04:32:40;28.83;;;21.02;;
22320;SDS011;11328;53.928;18.522;2023-07-29T04:35:09;29.85;;;21.77;;
22320;SDS011;11328;53.928;18.522;2023-07-29T04:37:36;29.92;;;20.75;;
22320;SDS011;11328;53.928;18.522;2023-07-29T04:40:03;28.55;;;20.30;;
22320;SDS011;11328;53.928;18.522;2023-07-29T04:42:31;27.42;;;19.42;;
22320;SDS011;11328;53.928;18.522;2023-07-29T04:44:59;27.00;;;20.40;;
22320;SDS011;11328;53.928;18.522;2023-07-29T04:47:26;28.27;;;19.65;;
22320;SDS011;11328;53.928;18.522;2023-07-29T04:49:53;24.35;;;19.73;;
22320;SDS011;11328;53.928;18.522;2023-07-29T04:52:21;26.88;;;19.63;;
22320;SDS011;11328;53.928;18.522;2023-07-29T04:54:48;24.77;;;18.58;;
22320;SDS011;11328;53.928;18.522;2023-07-29T04:57:16;23.15;;;18.25;;
22320;SDS011;11328;53.928;18.522;2023-07-29T04:59:43;24.73;;;18.58;;
22320;SDS011;11328;53.928;18.522;2023-07-29T05:02:11;22.70;;;18.10;;
22320;SDS011;11328;53.928;18.522;2023-07-29T05:04:38;24.33;;;17.52;;
22320;SDS011;11328;53.928;18.522;2023-07-29T05:07:05;23.45;;;17.67;;
22320;SDS011;11328;53.928;18.522;2023-07-29T05:09:32;23.05;;;16.75;;
22320;SDS011;11328;53.928;18.522;2023-07-29T05:12:00;21.80;;;17.90;;
22320;SDS011;11328;53.928;18.522;2023-07-29T05:14:27;23.42;;;17.48;;
22320;SDS011;11328;53.928;18.522;2023-07-29T05:16:55;22.45;;;17.80;;
22320;SDS011;11328;53.928;18.522;2023-07-29T05:19:22;21.92;;;17.05;;
22320;SDS011;11328;53.928;18.522;2023-07-29T05:21:50;20.75;;;16.23;;
22320;SDS011;11328;53.928;18.522;2023-07-29T05:24:17;18.00;;;14.57;;
22320;SDS011;11328;53.928;18.522;2023-07-29T05:26:44;18.08;;;14.38;;
22320;SDS011;11328;53.928;18.522;2023-07-29T05:29:11;18.08;;;13.95;;
22320;SDS011;11328;53.928;18.522;2023-07-29T05:31:38;16.40;;;12.80;;
22320;SDS011;11328;53.928;18.522;2023-07-29T05:34:06;18.85;;;12.05;;
22320;SDS011;11328;53.928;18.522;2023-07-29T05:36:34;18.27;;;12.02;;
22320;SDS011;11328;53.928;18.522;2023-07-29T05:39:01;14.25;;;10.95;;
22320;SDS011;11328;53.928;18.522;2023-07-29T05:41:29;15.55;;;10.85;;
22320;SDS011;11328;53.928;18.522;2023-07-29T05:43:57;15.32;;;11.15;;
22320;SDS011;11328;53.928;18.522;2023-07-29T05:46:24;13.95;;;10.30;;
22320;SDS011;11328;53.928;18.522;2023-07-29T05:48:52;15.23;;;10.88;;
22320;SDS011;11328;53.928;18.522;2023-07-29T05:51:19;16.45;;;10.80;;
22320;SDS011;11328;53.928;18.522;2023-07-29T05:53:46;14.05;;;10.93;;
22320;SDS011;11328;53.928;18.522;2023-07-29T05:56:14;15.38;;;10.27;;
22320;SDS011;11328;53.928;18.522;2023-07-29T05:58:41;13.98;;;10.52;;
22320;SDS011;11328;53.928;18.522;2023-07-29T06:01:09;13.05;;;9.32;;
22320;SDS011;11328;53.928;18.522;2023-07-29T06:03:36;11.00;;;8.45;;
22320;SDS011;11328;53.928;18.522;2023-07-29T06:06:03;10.77;;;7.80;;
22320;SDS011;11328;53.928;18.522;2023-07-29T06:08:31;11.07;;;8.07;;
22320;SDS011;11328;53.928;18.522;2023-07-29T06:11:00;12.50;;;7.55;;
22320;SDS011;11328;53.928;18.522;2023-07-29T06:13:28;11.48;;;7.18;;
22320;SDS011;11328;53.928;18.522;2023-07-29T06:15:56;9.25;;;6.97;;
22320;SDS011;11328;53.928;18.522;2023-07-29T06:18:24;12.38;;;7.30;;
22320;SDS011;11328;53.928;18.522;2023-07-29T06:20:51;10.85;;;6.43;;
22320;SDS011;11328;53.928;18.522;2023-07-29T06:23:18;8.50;;;5.57;;
22320;SDS011;11328;53.928;18.522;2023-07-29T06:25:45;10.45;;;5.20;;
22320;SDS011;11328;53.928;18.522;2023-07-29T06:28:13;9.40;;;5.43;;
22320;SDS011;11328;53.928;18.522;2023-07-29T06:30:40;9.82;;;4.53;;
22320;SDS011;11328;53.928;18.522;2023-07-29T06:33:07;8.93;;;4.60;;
22320;SDS011;11328;53.928;18.522;2023-07-29T06:35:35;7.97;;;4.55;;
22320;SDS011;11328;53.928;18.522;2023-07-29T06:38:03;7.63;;;4.40;;
22320;SDS011;11328;53.928;18.522;2023-07-29T06:40:30;6.30;;;4.05;;
22320;SDS011;11328;53.928;18.522;2023-07-29T06:42:57;7.95;;;4.15;;
22320;SDS011;11328;53.928;18.522;2023-07-29T06:45:24;6.75;;;4.30;;
22320;SDS011;11328;53.928;18.522;2023-07-29T06:47:52;8.13;;;4.65;;
22320;SDS011;11328;53.928;18.522;2023-07-29T06:50:20;11.63;;;5.00;;
22320;SDS011;11328;53.928;18.522;2023-07-29T06:52:47;7.28;;;4.50;;
22320;SDS011;11328;53.928;18.522;2023-07-29T06:55:15;9.68;;;4.45;;
22320;SDS011;11328;53.928;18.522;2023-07-29T06:57:42;8.35;;;4.57;;
22320;SDS011;11328;53.928;18.522;2023-07-29T07:00:09;7.65;;;4.90;;
22320;SDS011;11328;53.928;18.522;2023-07-29T07:02:37;7.57;;;4.63;;
22320;SDS011;11328;53.928;18.522;2023-07-29T07:05:04;12.43;;;5.10;;
22320;SDS011;11328;53.928;18.522;2023-07-29T07:07:32;10.32;;;4.82;;
22320;SDS011;11328;53.928;18.522;2023-07-29T07:09:59;6.95;;;4.60;;
22320;SDS011;11328;53.928;18.522;2023-07-29T07:12:27;7.80;;;4.35;;
22320;SDS011;11328;53.928;18.522;2023-07-29T07:14:54;8.10;;;4.25;;
22320;SDS011;11328;53.928;18.522;2023-07-29T07:17:21;6.57;;;3.90;;
22320;SDS011;11328;53.928;18.522;2023-07-29T07:19:48;6.88;;;3.90;;
22320;SDS011;11328;53.928;18.522;2023-07-29T07:22:16;8.57;;;4.68;;
22320;SDS011;11328;53.928;18.522;2023-07-29T07:24:44;8.82;;;3.95;;
22320;SDS011;11328;53.928;18.522;2023-07-29T07:27:11;7.05;;;3.40;;
22320;SDS011;11328;53.928;18.522;2023-07-29T07:29:38;8.27;;;3.85;;
22320;SDS011;11328;53.928;18.522;2023-07-29T07:32:06;7.68;;;3.80;;
22320;SDS011;11328;53.928;18.522;2023-07-29T07:34:33;6.30;;;3.60;;
22320;SDS011;11328;53.928;18.522;2023-07-29T07:37:01;8.57;;;3.67;;
22320;SDS011;11328;53.928;18.522;2023-07-29T07:39:31;5.43;;;3.30;;
22320;SDS011;11328;53.928;18.522;2023-07-29T07:41:58;7.22;;;3.33;;
22320;SDS011;11328;53.928;18.522;2023-07-29T07:44:26;7.55;;;4.07;;
22320;SDS011;11328;53.928;18.522;2023-07-29T07:46:53;7.10;;;3.30;;
22320;SDS011;11328;53.928;18.522;2023-07-29T07:49:21;6.93;;;3.30;;
22320;SDS011;11328;53.928;18.522;2023-07-29T07:51:49;9.18;;;4.18;;
22320;SDS011;11328;53.928;18.522;2023-07-29T07:54:17;7.88;;;3.55;;
22320;SDS011;11328;53.928;18.522;2023-07-29T07:56:44;4.85;;;2.83;;
22320;SDS011;11328;53.928;18.522;2023-07-29T07:59:11;5.53;;;2.80;;
22320;SDS011;11328;53.928;18.522;2023-07-29T08:01:42;4.63;;;2.92;;
22320;SDS011;11328;53.928;18.522;2023-07-29T08:04:09;7.13;;;3.15;;
22320;SDS011;11328;53.928;18.522;2023-07-29T08:06:37;5.40;;;3.10;;
22320;SDS011;11328;53.928;18.522;2023-07-29T08:09:05;5.47;;;3.08;;
22320;SDS011;11328;53.928;18.522;2023-07-29T08:11:32;7.22;;;3.08;;
22320;SDS011;11328;53.928;18.522;2023-07-29T08:14:01;7.97;;;2.97;;
22320;SDS011;11328;53.928;18.522;2023-07-29T08:16:28;8.20;;;2.90;;
22320;SDS011;11328;53.928;18.522;2023-07-29T08:18:56;6.18;;;2.80;;
22320;SDS011;11328;53.928;18.522;2023-07-29T08:21:23;6.10;;;2.88;;
22320;SDS011;11328;53.928;18.522;2023-07-29T08:23:50;3.72;;;2.67;;
22320;SDS011;11328;53.928;18.522;2023-07-29T08:26:18;6.07;;;2.97;;
22320;SDS011;11328;53.928;18.522;2023-07-29T08:28:45;5.70;;;2.92;;
22320;SDS011;11328;53.928;18.522;2023-07-29T08:31:12;5.85;;;2.95;;
22320;SDS011;11328;53.928;18.522;2023-07-29T10:25:05;6.03;;;2.72;;
22320;SDS011;11328;53.928;18.522;2023-07-29T10:30:32;4.32;;;2.70;;
22320;SDS011;11328;53.928;18.522;2023-07-29T10:33:03;4.22;;;2.65;;
22320;SDS011;11328;53.928;18.522;2023-07-29T10:35:33;9.52;;;3.35;;
22320;SDS011;11328;53.928;18.522;2023-07-29T10:38:01;4.80;;;2.63;;
22320;SDS011;11328;53.928;18.522;2023-07-29T10:40:50;9.75;;;3.10;;
22320;SDS011;11328;53.928;18.522;2023-07-29T10:48:41;6.20;;;2.53;;
22320;SDS011;11328;53.928;18.522;2023-07-29T10:56:34;4.40;;;2.42;;
22320;SDS011;11328;53.928;18.522;2023-07-29T11:01:50;4.75;;;2.50;;
22320;SDS011;11328;53.928;18.522;2023-07-29T11:04:24;4.28;;;2.20;;
22320;SDS011;11328;53.928;18.522;2023-07-29T11:09:51;6.82;;;2.30;;
22320;SDS011;11328;53.928;18.522;2023-07-29T11:15:19;5.30;;;2.42;;
22320;SDS011;11328;53.928;18.522;2023-07-29T11:17:57;4.32;;;2.38;;
22320;SDS011;11328;53.928;18.522;2023-07-29T11:20:27;5.95;;;2.30;;
22320;SDS011;11328;53.928;18.522;2023-07-29T11:22:57;10.43;;;2.50;;
22320;SDS011;11328;53.928;18.522;2023-07-29T11:25:26;6.45;;;2.35;;
22320;SDS011;11328;53.928;18.522;2023-07-29T11:27:56;4.30;;;2.42;;
22320;SDS011;11328;53.928;18.522;2023-07-29T11:30:25;4.72;;;2.60;;
22320;SDS011;11328;53.928;18.522;2023-07-29T11:32:53;6.65;;;2.90;;
22320;SDS011;11328;53.928;18.522;2023-07-29T11:35:24;5.43;;;2.63;;
22320;SDS011;11328;53.928;18.522;2023-07-29T11:37:53;10.57;;;2.63;;
22320;SDS011;11328;53.928;18.522;2023-07-29T11:40:23;4.85;;;2.50;;
22320;SDS011;11328;53.928;18.522;2023-07-29T11:42:51;5.63;;;2.22;;
22320;SDS011;11328;53.928;18.522;2023-07-29T11:45:19;3.95;;;2.40;;
22320;SDS011;11328;53.928;18.522;2023-07-29T11:47:55;7.57;;;3.15;;
22320;SDS011;11328;53.928;18.522;2023-07-29T11:50:22;24.67;;;3.65;;
22320;SDS011;11328;53.928;18.522;2023-07-29T11:52:49;4.57;;;2.42;;
22320;SDS011;11328;53.928;18.522;2023-07-29T11:55:16;5.75;;;2.85;;
22320;SDS011;11328;53.928;18.522;2023-07-29T11:57:43;5.50;;;2.42;;
22320;SDS011;11328;53.928;18.522;2023-07-29T12:00:10;8.40;;;2.90;;
22320;SDS011;11328;53.928;18.522;2023-07-29T12:02:40;7.65;;;3.35;;
22320;SDS011;11328;53.928;18.522;2023-07-29T12:07:42;6.00;;;3.10;;
22320;SDS011;11328;53.928;18.522;2023-07-29T12:10:10;6.15;;;2.65;;
22320;SDS011;11328;53.928;18.522;2023-07-29T12:12:44;5.57;;;2.03;;
22320;SDS011;11328;53.928;18.522;2023-07-29T12:15:13;11.70;;;2.90;;
22320;SDS011;11328;53.928;18.522;2023-07-29T12:17:52;5.68;;;2.40;;
22320;SDS011;11328;53.928;18.522;2023-07-29T12:20:22;5.57;;;2.50;;
22320;SDS011;11328;53.928;18.522;2023-07-29T12:22:54;3.30;;;2.00;;
22320;SDS011;11328;53.928;18.522;2023-07-29T12:25:27;3.70;;;2.30;;
22320;SDS011;11328;53.928;18.522;2023-07-29T12:27:56;5.57;;;2.63;;
22320;SDS011;11328;53.928;18.522;2023-07-29T12:30:29;5.60;;;2.38;;
22320;SDS011;11328;53.928;18.522;2023-07-29T12:32:56;7.65;;;2.80;;
22320;SDS011;11328;53.928;18.522;2023-07-29T12:35:24;4.13;;;2.28;;
22320;SDS011;11328;53.928;18.522;2023-07-29T12:38:01;8.48;;;2.92;;
22320;SDS011;11328;53.928;18.522;2023-07-29T12:40:28;5.47;;;2.22;;
22320;SDS011;11328;53.928;18.522;2023-07-29T12:42:55;3.17;;;2.03;;
22320;SDS011;11328;53.928;18.522;2023-07-29T12:45:23;8.20;;;2.42;;
22320;SDS011;11328;53.928;18.522;2023-07-29T12:47:53;4.72;;;1.95;;
22320;SDS011;11328;53.928;18.522;2023-07-29T12:50:20;5.32;;;2.05;;
22320;SDS011;11328;53.928;18.522;2023-07-29T12:52:47;3.90;;;1.95;;
22320;SDS011;11328;53.928;18.522;2023-07-29T12:55:14;3.33;;;1.80;;
22320;SDS011;11328;53.928;18.522;2023-07-29T12:57:45;4.75;;;1.92;;
22320;SDS011;11328;53.928;18.522;2023-07-29T13:00:12;3.38;;;1.98;;
22320;SDS011;11328;53.928;18.522;2023-07-29T13:02:39;7.18;;;2.45;;
22320;SDS011;11328;53.928;18.522;2023-07-29T13:05:08;3.72;;;1.98;;
22320;SDS011;11328;53.928;18.522;2023-07-29T13:07:41;4.00;;;2.33;;
22320;SDS011;11328;53.928;18.522;2023-07-29T13:10:09;4.63;;;2.10;;
22320;SDS011;11328;53.928;18.522;2023-07-29T13:12:37;6.65;;;2.00;;
22320;SDS011;11328;53.928;18.522;2023-07-29T13:15:05;6.05;;;2.05;;
22320;SDS011;11328;53.928;18.522;2023-07-29T13:17:33;3.67;;;2.13;;
22320;SDS011;11328;53.928;18.522;2023-07-29T13:20:01;34.97;;;3.85;;
22320;SDS011;11328;53.928;18.522;2023-07-29T13:22:28;3.75;;;2.03;;
22320;SDS011;11328;53.928;18.522;2023-07-29T13:24:55;7.28;;;2.25;;
22320;SDS011;11328;53.928;18.522;2023-07-29T13:27:22;32.95;;;4.30;;
22320;SDS011;11328;53.928;18.522;2023-07-29T13:29:50;7.97;;;2.13;;
22320;SDS011;11328;53.928;18.522;2023-07-29T13:32:17;3.80;;;2.03;;
22320;SDS011;11328;53.928;18.522;2023-07-29T13:34:44;4.47;;;2.20;;
22320;SDS011;11328;53.928;18.522;2023-07-29T13:37:11;3.05;;;2.17;;
22320;SDS011;11328;53.928;18.522;2023-07-29T13:39:38;15.25;;;9.40;;
22320;SDS011;11328;53.928;18.522;2023-07-29T13:42:05;5.05;;;2.40;;
22320;SDS011;11328;53.928;18.522;2023-07-29T13:44:32;3.88;;;2.35;;
22320;SDS011;11328;53.928;18.522;2023-07-29T13:46:59;10.70;;;5.78;;
22320;SDS011;11328;53.928;18.522;2023-07-29T13:49:26;4.13;;;2.60;;
22320;SDS011;11328;53.928;18.522;2023-07-29T13:51:53;5.20;;;2.22;;
22320;SDS011;11328;53.928;18.522;2023-07-29T13:54:20;2.88;;;2.05;;
22320;SDS011;11328;53.928;18.522;2023-07-29T13:56:50;5.97;;;3.65;;
22320;SDS011;11328;53.928;18.522;2023-07-29T13:59:17;12.77;;;3.53;;
22320;SDS011;11328;53.928;18.522;2023-07-29T14:01:44;6.45;;;2.20;;
22320;SDS011;11328;53.928;18.522;2023-07-29T14:04:11;7.22;;;2.42;;
22320;SDS011;11328;53.928;18.522;2023-07-29T14:06:38;4.68;;;2.90;;
22320;SDS011;11328;53.928;18.522;2023-07-29T14:09:08;3.50;;;2.22;;
22320;SDS011;11328;53.928;18.522;2023-07-29T14:11:35;12.10;;;2.60;;
22320;SDS011;11328;53.928;18.522;2023-07-29T14:14:02;4.45;;;2.05;;
22320;SDS011;11328;53.928;18.522;2023-07-29T14:16:29;12.55;;;2.75;;
22320;SDS011;11328;53.928;18.522;2023-07-29T14:18:56;7.72;;;2.50;;
22320;SDS011;11328;53.928;18.522;2023-07-29T14:21:23;9.75;;;2.40;;
22320;SDS011;11328;53.928;18.522;2023-07-29T14:23:51;5.10;;;2.33;;
22320;SDS011;11328;53.928;18.522;2023-07-29T14:26:17;3.80;;;2.17;;
22320;SDS011;11328;53.928;18.522;2023-07-29T14:28:44;19.08;;;2.60;;
22320;SDS011;11328;53.928;18.522;2023-07-29T14:31:11;13.80;;;2.30;;
22320;SDS011;11328;53.928;18.522;2023-07-29T14:33:40;7.35;;;2.30;;
22320;SDS011;11328;53.928;18.522;2023-07-29T14:36:06;5.40;;;2.00;;
22320;SDS011;11328;53.928;18.522;2023-07-29T14:38:34;4.10;;;2.17;;
22320;SDS011;11328;53.928;18.522;2023-07-29T14:41:02;3.60;;;2.25;;
22320;SDS011;11328;53.928;18.522;2023-07-29T14:43:30;4.03;;;2.20;;
22320;SDS011;11328;53.928;18.522;2023-07-29T14:45:57;3.33;;;2.30;;
22320;SDS011;11328;53.928;18.522;2023-07-29T14:48:24;3.13;;;1.95;;
22320;SDS011;11328;53.928;18.522;2023-07-29T14:50:51;3.63;;;2.10;;
22320;SDS011;11328;53.928;18.522;2023-07-29T14:53:18;19.50;;;13.30;;
22320;SDS011;11328;53.928;18.522;2023-07-29T14:55:46;13.25;;;6.10;;
22320;SDS011;11328;53.928;18.522;2023-07-29T14:58:13;9.27;;;5.43;;
22320;SDS011;11328;53.928;18.522;2023-07-29T15:00:39;11.75;;;7.00;;
22320;SDS011;11328;53.928;18.522;2023-07-29T15:03:06;4.55;;;2.83;;
22320;SDS011;11328;53.928;18.522;2023-07-29T15:05:34;35.50;;;24.60;;
22320;SDS011;11328;53.928;18.522;2023-07-29T15:08:01;13.68;;;7.80;;
22320;SDS011;11328;53.928;18.522;2023-07-29T15:10:28;7.20;;;2.65;;
22320;SDS011;11328;53.928;18.522;2023-07-29T15:12:55;4.43;;;2.13;;
22320;SDS011;11328;53.928;18.522;2023-07-29T15:15:22;13.07;;;7.15;;
22320;SDS011;11328;53.928;18.522;2023-07-29T15:17:49;10.73;;;4.65;;
22320;SDS011;11328;53.928;18.522;2023-07-29T15:20:16;5.55;;;2.25;;
22320;SDS011;11328;53.928;18.522;2023-07-29T15:22:43;14.48;;;2.80;;
22320;SDS011;11328;53.928;18.522;2023-07-29T15:25:10;4.82;;;2.75;;
22320;SDS011;11328;53.928;18.522;2023-07-29T15:27:37;22.65;;;13.02;;
22320;SDS011;11328;53.928;18.522;2023-07-29T15:30:08;24.27;;;14.43;;
22320;SDS011;11328;53.928;18.522;2023-07-29T15:32:35;8.25;;;3.80;;
22320;SDS011;11328;53.928;18.522;2023-07-29T15:35:02;33.70;;;21.25;;
22320;SDS011;11328;53.928;18.522;2023-07-29T15:37:29;23.48;;;13.05;;
22320;SDS011;11328;53.928;18.522;2023-07-29T15:39:56;31.83;;;19.30;;
22320;SDS011;11328;53.928;18.522;2023-07-29T15:42:23;9.25;;;4.70;;
22320;SDS011;11328;53.928;18.522;2023-07-29T15:44:50;11.43;;;3.55;;
22320;SDS011;11328;53.928;18.522;2023-07-29T15:47:17;16.58;;;7.30;;
22320;SDS011;11328;53.928;18.522;2023-07-29T15:49:45;29.42;;;11.32;;
22320;SDS011;11328;53.928;18.522;2023-07-29T15:52:12;45.90;;;24.27;;
22320;SDS011;11328;53.928;18.522;2023-07-29T15:54:42;47.83;;;25.60;;
22320;SDS011;11328;53.928;18.522;2023-07-29T15:57:12;40.05;;;20.65;;
22320;SDS011;11328;53.928;18.522;2023-07-29T15:59:39;31.38;;;15.70;;
22320;SDS011;11328;53.928;18.522;2023-07-29T16:02:06;13.95;;;6.18;;
22320;SDS011;11328;53.928;18.522;2023-07-29T16:04:35;30.27;;;12.10;;
22320;SDS011;11328;53.928;18.522;2023-07-29T16:07:02;22.92;;;9.82;;
22320;SDS011;11328;53.928;18.522;2023-07-29T16:09:29;34.60;;;16.27;;
22320;SDS011;11328;53.928;18.522;2023-07-29T16:11:56;39.53;;;16.65;;
22320;SDS011;11328;53.928;18.522;2023-07-29T16:14:23;38.20;;;16.48;;
22320;SDS011;11328;53.928;18.522;2023-07-29T16:16:50;98.15;;;46.72;;
22320;SDS011;11328;53.928;18.522;2023-07-29T16:19:22;34.85;;;14.10;;
22320;SDS011;11328;53.928;18.522;2023-07-29T16:21:52;24.02;;;13.20;;
22320;SDS011;11328;53.928;18.522;2023-07-29T16:24:20;23.95;;;9.18;;
22320;SDS011;11328;53.928;18.522;2023-07-29T16:26:47;10.18;;;3.67;;
22320;SDS011;11328;53.928;18.522;2023-07-29T16:29:14;6.65;;;2.78;;
22320;SDS011;11328;53.928;18.522;2023-07-29T16:31:41;6.68;;;2.65;;
22320;SDS011;11328;53.928;18.522;2023-07-29T16:34:08;6.22;;;2.35;;
22320;SDS011;11328;53.928;18.522;2023-07-29T16:36:35;5.55;;;2.40;;
22320;SDS011;11328;53.928;18.522;2023-07-29T16:39:03;8.38;;;2.60;;
22320;SDS011;11328;53.928;18.522;2023-07-29T16:41:30;3.20;;;2.20;;
22320;SDS011;11328;53.928;18.522;2023-07-29T16:44:17;7.60;;;2.67;;
22320;SDS011;11328;53.928;18.522;2023-07-29T16:46:44;6.97;;;2.75;;